sensor_id;sensor_type;location;lat;lon;timestamp;P1;durP1;ratioP1;P2;durP2;ratioP2
27013;SDS011;14556;52.222;4.510;2023-03-23T00:01:58;9.90;;;3.83;;
27013;SDS011;14556;52.222;4.510;2023-03-23T00:04:23;11.07;;;3.43;;
27013;SDS011;14556;52.222;4.510;2023-03-23T00:06:52;5.87;;;3.50;;
27013;SDS011;14556;52.222;4.510;2023-03-23T00:09:17;4.90;;;3.07;;
27013;SDS011;14556;52.222;4.510;2023-03-23T00:11:48;6.50;;;3.10;;
27013;SDS011;14556;52.222;4.510;2023-03-23T00:14:13;3.33;;;2.70;;
27013;SDS011;14556;52.222;4.510;2023-03-23T00:16:40;7.07;;;3.13;;
27013;SDS011;14556;52.222;4.510;2023-03-23T00:19:10;5.63;;;2.50;;
27013;SDS011;14556;52.222;4.510;2023-03-23T00:21:38;10.90;;;3.00;;
27013;SDS011;14556;52.222;4.510;2023-03-23T00:24:11;9.83;;;2.60;;
27013;SDS011;14556;52.222;4.510;2023-03-23T00:26:37;3.40;;;2.37;;
27013;SDS011;14556;52.222;4.510;2023-03-23T00:29:05;5.60;;;2.53;;
27013;SDS011;14556;52.222;4.510;2023-03-23T00:31:30;4.17;;;2.40;;
27013;SDS011;14556;52.222;4.510;2023-03-23T00:34:00;5.63;;;2.47;;
27013;SDS011;14556;52.222;4.510;2023-03-23T00:36:26;6.13;;;2.33;;
27013;SDS011;14556;52.222;4.510;2023-03-23T00:38:52;6.03;;;2.83;;
27013;SDS011;14556;52.222;4.510;2023-03-23T00:41:17;4.30;;;2.40;;
27013;SDS011;14556;52.222;4.510;2023-03-23T00:43:42;8.53;;;2.77;;
27013;SDS011;14556;52.222;4.510;2023-03-23T00:46:08;6.07;;;2.33;;
27013;SDS011;14556;52.222;4.510;2023-03-23T00:48:35;5.63;;;2.90;;
27013;SDS011;14556;52.222;4.510;2023-03-23T00:51:01;4.53;;;2.17;;
27013;SDS011;14556;52.222;4.510;2023-03-23T00:53:31;3.50;;;2.13;;
27013;SDS011;14556;52.222;4.510;2023-03-23T00:55:56;5.40;;;2.00;;
27013;SDS011;14556;52.222;4.510;2023-03-23T00:58:21;4.63;;;2.00;;
27013;SDS011;14556;52.222;4.510;2023-03-23T01:00:46;3.93;;;2.10;;
27013;SDS011;14556;52.222;4.510;2023-03-23T01:03:12;5.43;;;2.57;;
27013;SDS011;14556;52.222;4.510;2023-03-23T01:05:43;4.27;;;2.20;;
27013;SDS011;14556;52.222;4.510;2023-03-23T01:08:08;4.10;;;1.93;;
27013;SDS011;14556;52.222;4.510;2023-03-23T01:10:35;5.67;;;1.63;;
27013;SDS011;14556;52.222;4.510;2023-03-23T01:13:03;4.23;;;2.03;;
27013;SDS011;14556;52.222;4.510;2023-03-23T01:15:29;6.53;;;2.40;;
27013;SDS011;14556;52.222;4.510;2023-03-23T01:17:55;3.77;;;1.57;;
27013;SDS011;14556;52.222;4.510;2023-03-23T01:20:20;2.50;;;1.83;;
27013;SDS011;14556;52.222;4.510;2023-03-23T01:22:46;5.90;;;2.20;;
27013;SDS011;14556;52.222;4.510;2023-03-23T01:25:12;3.67;;;1.63;;
27013;SDS011;14556;52.222;4.510;2023-03-23T01:27:38;4.53;;;1.60;;
27013;SDS011;14556;52.222;4.510;2023-03-23T01:30:05;2.80;;;1.90;;
27013;SDS011;14556;52.222;4.510;2023-03-23T01:32:30;6.23;;;1.67;;
27013;SDS011;14556;52.222;4.510;2023-03-23T01:34:56;4.83;;;1.47;;
27013;SDS011;14556;52.222;4.510;2023-03-23T01:37:21;6.43;;;1.73;;
27013;SDS011;14556;52.222;4.510;2023-03-23T01:39:52;3.33;;;1.50;;
27013;SDS011;14556;52.222;4.510;2023-03-23T01:42:17;4.37;;;1.53;;
27013;SDS011;14556;52.222;4.510;2023-03-23T01:47:07;4.33;;;1.60;;
27013;SDS011;14556;52.222;4.510;2023-03-23T01:49:34;4.23;;;1.83;;
27013;SDS011;14556;52.222;4.510;2023-03-23T01:52:08;3.00;;;1.40;;
27013;SDS011;14556;52.222;4.510;2023-03-23T01:54:35;2.93;;;1.70;;
27013;SDS011;14556;52.222;4.510;2023-03-23T01:57:09;3.97;;;1.90;;
27013;SDS011;14556;52.222;4.510;2023-03-23T01:59:36;5.47;;;2.07;;
27013;SDS011;14556;52.222;4.510;2023-03-23T02:02:02;3.43;;;1.90;;
27013;SDS011;14556;52.222;4.510;2023-03-23T02:04:28;3.03;;;1.90;;
27013;SDS011;14556;52.222;4.510;2023-03-23T02:06:54;3.17;;;1.90;;
27013;SDS011;14556;52.222;4.510;2023-03-23T02:09:21;6.27;;;1.80;;
27013;SDS011;14556;52.222;4.510;2023-03-23T02:11:47;4.43;;;2.00;;
27013;SDS011;14556;52.222;4.510;2023-03-23T02:14:14;3.63;;;1.77;;
27013;SDS011;14556;52.222;4.510;2023-03-23T02:16:43;3.60;;;1.87;;
27013;SDS011;14556;52.222;4.510;2023-03-23T02:21:58;3.33;;;1.50;;
27013;SDS011;14556;52.222;4.510;2023-03-23T02:37:46;5.13;;;1.70;;
27013;SDS011;14556;52.222;4.510;2023-03-23T02:40:20;1.73;;;1.40;;
27013;SDS011;14556;52.222;4.510;2023-03-23T02:42:48;2.07;;;1.43;;
27013;SDS011;14556;52.222;4.510;2023-03-23T02:45:14;4.20;;;1.97;;
27013;SDS011;14556;52.222;4.510;2023-03-23T02:47:41;1.70;;;1.40;;
27013;SDS011;14556;52.222;4.510;2023-03-23T02:50:07;3.53;;;1.70;;
27013;SDS011;14556;52.222;4.510;2023-03-23T02:52:33;3.27;;;1.67;;
27013;SDS011;14556;52.222;4.510;2023-03-23T02:54:59;3.00;;;1.70;;
27013;SDS011;14556;52.222;4.510;2023-03-23T02:57:26;8.13;;;1.97;;
27013;SDS011;14556;52.222;4.510;2023-03-23T02:59:52;5.73;;;1.57;;
27013;SDS011;14556;52.222;4.510;2023-03-23T03:02:22;3.40;;;1.47;;
27013;SDS011;14556;52.222;4.510;2023-03-23T03:04:52;4.47;;;1.70;;
27013;SDS011;14556;52.222;4.510;2023-03-23T03:09:52;3.67;;;1.40;;
27013;SDS011;14556;52.222;4.510;2023-03-23T03:15:06;2.93;;;1.37;;
27013;SDS011;14556;52.222;4.510;2023-03-23T03:17:34;6.80;;;1.57;;
27013;SDS011;14556;52.222;4.510;2023-03-23T03:20:02;4.17;;;1.63;;
27013;SDS011;14556;52.222;4.510;2023-03-23T03:22:33;5.07;;;1.13;;
27013;SDS011;14556;52.222;4.510;2023-03-23T03:25:02;4.53;;;1.50;;
27013;SDS011;14556;52.222;4.510;2023-03-23T03:27:29;6.93;;;1.13;;
27013;SDS011;14556;52.222;4.510;2023-03-23T03:29:57;5.60;;;1.60;;
27013;SDS011;14556;52.222;4.510;2023-03-23T03:32:25;7.30;;;1.40;;
27013;SDS011;14556;52.222;4.510;2023-03-23T03:34:56;7.93;;;1.90;;
27013;SDS011;14556;52.222;4.510;2023-03-23T03:37:21;6.30;;;1.47;;
27013;SDS011;14556;52.222;4.510;2023-03-23T03:39:47;7.43;;;1.73;;
27013;SDS011;14556;52.222;4.510;2023-03-23T03:42:12;5.37;;;1.77;;
27013;SDS011;14556;52.222;4.510;2023-03-23T03:44:38;7.13;;;1.67;;
27013;SDS011;14556;52.222;4.510;2023-03-23T03:47:03;6.10;;;1.57;;
27013;SDS011;14556;52.222;4.510;2023-03-23T03:49:29;4.77;;;1.80;;
27013;SDS011;14556;52.222;4.510;2023-03-23T03:51:54;4.93;;;1.50;;
27013;SDS011;14556;52.222;4.510;2023-03-23T03:54:19;7.70;;;1.60;;
27013;SDS011;14556;52.222;4.510;2023-03-23T03:56:44;6.90;;;1.43;;
27013;SDS011;14556;52.222;4.510;2023-03-23T03:59:11;5.13;;;1.50;;
27013;SDS011;14556;52.222;4.510;2023-03-23T04:01:38;8.43;;;1.77;;
27013;SDS011;14556;52.222;4.510;2023-03-23T04:04:03;4.20;;;1.37;;
27013;SDS011;14556;52.222;4.510;2023-03-23T04:06:31;9.50;;;2.00;;
27013;SDS011;14556;52.222;4.510;2023-03-23T04:08:57;3.37;;;1.40;;
27013;SDS011;14556;52.222;4.510;2023-03-23T04:11:24;6.07;;;1.60;;
27013;SDS011;14556;52.222;4.510;2023-03-23T04:13:50;8.63;;;2.10;;
27013;SDS011;14556;52.222;4.510;2023-03-23T04:16:15;5.60;;;1.93;;
27013;SDS011;14556;52.222;4.510;2023-03-23T04:18:42;9.83;;;1.60;;
27013;SDS011;14556;52.222;4.510;2023-03-23T04:21:07;9.17;;;2.53;;
27013;SDS011;14556;52.222;4.510;2023-03-23T04:23:33;8.50;;;2.50;;
27013;SDS011;14556;52.222;4.510;2023-03-23T04:25:59;9.27;;;1.70;;
27013;SDS011;14556;52.222;4.510;2023-03-23T04:28:25;7.13;;;2.00;;
27013;SDS011;14556;52.222;4.510;2023-03-23T04:30:51;8.00;;;1.53;;
27013;SDS011;14556;52.222;4.510;2023-03-23T04:33:20;12.37;;;2.10;;
27013;SDS011;14556;52.222;4.510;2023-03-23T04:35:46;11.10;;;2.83;;
27013;SDS011;14556;52.222;4.510;2023-03-23T04:38:13;10.80;;;2.23;;
27013;SDS011;14556;52.222;4.510;2023-03-23T04:40:40;7.77;;;2.03;;
27013;SDS011;14556;52.222;4.510;2023-03-23T04:43:05;11.00;;;2.30;;
27013;SDS011;14556;52.222;4.510;2023-03-23T04:45:31;14.33;;;2.90;;
27013;SDS011;14556;52.222;4.510;2023-03-23T04:47:57;7.70;;;1.63;;
27013;SDS011;14556;52.222;4.510;2023-03-23T04:50:23;12.73;;;2.60;;
27013;SDS011;14556;52.222;4.510;2023-03-23T04:52:49;10.03;;;2.67;;
27013;SDS011;14556;52.222;4.510;2023-03-23T04:55:17;20.37;;;2.53;;
27013;SDS011;14556;52.222;4.510;2023-03-23T04:57:42;9.47;;;2.13;;
27013;SDS011;14556;52.222;4.510;2023-03-23T05:00:08;14.03;;;2.33;;
27013;SDS011;14556;52.222;4.510;2023-03-23T05:02:36;14.83;;;1.80;;
27013;SDS011;14556;52.222;4.510;2023-03-23T05:05:02;10.13;;;2.17;;
27013;SDS011;14556;52.222;4.510;2023-03-23T05:07:27;14.83;;;1.93;;
27013;SDS011;14556;52.222;4.510;2023-03-23T05:09:52;11.93;;;1.93;;
27013;SDS011;14556;52.222;4.510;2023-03-23T05:12:18;16.13;;;2.37;;
27013;SDS011;14556;52.222;4.510;2023-03-23T05:14:43;16.57;;;2.53;;
27013;SDS011;14556;52.222;4.510;2023-03-23T05:17:08;21.50;;;3.13;;
27013;SDS011;14556;52.222;4.510;2023-03-23T05:19:34;11.93;;;3.23;;
27013;SDS011;14556;52.222;4.510;2023-03-23T05:22:00;20.07;;;2.40;;
27013;SDS011;14556;52.222;4.510;2023-03-23T05:24:32;13.00;;;2.83;;
27013;SDS011;14556;52.222;4.510;2023-03-23T05:27:00;17.63;;;3.17;;
27013;SDS011;14556;52.222;4.510;2023-03-23T05:29:28;17.87;;;2.33;;
27013;SDS011;14556;52.222;4.510;2023-03-23T05:31:56;16.60;;;2.37;;
27013;SDS011;14556;52.222;4.510;2023-03-23T05:34:25;16.23;;;3.23;;
27013;SDS011;14556;52.222;4.510;2023-03-23T05:36:51;18.10;;;4.33;;
27013;SDS011;14556;52.222;4.510;2023-03-23T05:39:18;19.87;;;4.33;;
27013;SDS011;14556;52.222;4.510;2023-03-23T05:41:43;13.47;;;1.93;;
27013;SDS011;14556;52.222;4.510;2023-03-23T05:44:09;14.50;;;2.20;;
27013;SDS011;14556;52.222;4.510;2023-03-23T05:46:34;21.00;;;3.43;;
27013;SDS011;14556;52.222;4.510;2023-03-23T05:49:00;12.37;;;2.57;;
27013;SDS011;14556;52.222;4.510;2023-03-23T05:51:26;14.67;;;2.90;;
27013;SDS011;14556;52.222;4.510;2023-03-23T05:53:51;15.50;;;3.30;;
27013;SDS011;14556;52.222;4.510;2023-03-23T05:56:17;11.13;;;2.53;;
27013;SDS011;14556;52.222;4.510;2023-03-23T05:58:43;13.23;;;2.27;;
27013;SDS011;14556;52.222;4.510;2023-03-23T06:01:08;17.77;;;3.00;;
27013;SDS011;14556;52.222;4.510;2023-03-23T06:03:34;10.60;;;2.63;;
27013;SDS011;14556;52.222;4.510;2023-03-23T06:06:01;13.87;;;3.07;;
27013;SDS011;14556;52.222;4.510;2023-03-23T06:08:26;15.60;;;3.70;;
27013;SDS011;14556;52.222;4.510;2023-03-23T06:10:52;14.00;;;3.03;;
27013;SDS011;14556;52.222;4.510;2023-03-23T06:13:17;17.73;;;3.13;;
27013;SDS011;14556;52.222;4.510;2023-03-23T06:15:43;14.70;;;1.93;;
27013;SDS011;14556;52.222;4.510;2023-03-23T06:18:08;16.93;;;3.13;;
27013;SDS011;14556;52.222;4.510;2023-03-23T06:20:34;20.27;;;2.63;;
27013;SDS011;14556;52.222;4.510;2023-03-23T06:23:00;16.97;;;2.47;;
27013;SDS011;14556;52.222;4.510;2023-03-23T06:25:25;14.17;;;2.60;;
27013;SDS011;14556;52.222;4.510;2023-03-23T06:27:50;24.10;;;3.60;;
27013;SDS011;14556;52.222;4.510;2023-03-23T06:30:17;15.93;;;2.87;;
27013;SDS011;14556;52.222;4.510;2023-03-23T06:32:42;16.43;;;3.70;;
27013;SDS011;14556;52.222;4.510;2023-03-23T06:35:11;21.00;;;3.83;;
27013;SDS011;14556;52.222;4.510;2023-03-23T06:37:36;18.40;;;3.50;;
27013;SDS011;14556;52.222;4.510;2023-03-23T06:40:02;14.30;;;2.73;;
27013;SDS011;14556;52.222;4.510;2023-03-23T06:42:29;19.47;;;2.80;;
27013;SDS011;14556;52.222;4.510;2023-03-23T06:44:54;16.20;;;4.37;;
27013;SDS011;14556;52.222;4.510;2023-03-23T06:47:21;16.93;;;2.77;;
27013;SDS011;14556;52.222;4.510;2023-03-23T06:49:48;13.07;;;2.77;;
27013;SDS011;14556;52.222;4.510;2023-03-23T06:52:13;14.07;;;2.73;;
27013;SDS011;14556;52.222;4.510;2023-03-23T06:54:39;21.37;;;3.13;;
27013;SDS011;14556;52.222;4.510;2023-03-23T06:57:05;22.60;;;3.53;;
27013;SDS011;14556;52.222;4.510;2023-03-23T06:59:30;15.17;;;2.47;;
27013;SDS011;14556;52.222;4.510;2023-03-23T07:01:56;14.27;;;3.10;;
27013;SDS011;14556;52.222;4.510;2023-03-23T07:04:21;14.83;;;2.57;;
27013;SDS011;14556;52.222;4.510;2023-03-23T07:06:48;16.70;;;2.53;;
27013;SDS011;14556;52.222;4.510;2023-03-23T07:09:13;16.10;;;3.03;;
27013;SDS011;14556;52.222;4.510;2023-03-23T07:11:39;20.20;;;3.03;;
27013;SDS011;14556;52.222;4.510;2023-03-23T07:14:04;17.00;;;2.73;;
27013;SDS011;14556;52.222;4.510;2023-03-23T07:16:29;17.37;;;3.03;;
27013;SDS011;14556;52.222;4.510;2023-03-23T07:18:56;12.83;;;2.27;;
27013;SDS011;14556;52.222;4.510;2023-03-23T07:21:21;11.10;;;2.23;;
27013;SDS011;14556;52.222;4.510;2023-03-23T07:23:46;12.07;;;2.00;;
27013;SDS011;14556;52.222;4.510;2023-03-23T07:26:12;14.20;;;2.30;;
27013;SDS011;14556;52.222;4.510;2023-03-23T07:28:38;9.77;;;2.30;;
27013;SDS011;14556;52.222;4.510;2023-03-23T07:31:05;15.07;;;2.73;;
27013;SDS011;14556;52.222;4.510;2023-03-23T07:33:31;26.20;;;3.50;;
27013;SDS011;14556;52.222;4.510;2023-03-23T07:35:58;23.77;;;2.70;;
27013;SDS011;14556;52.222;4.510;2023-03-23T07:38:23;17.47;;;2.60;;
27013;SDS011;14556;52.222;4.510;2023-03-23T07:40:50;15.07;;;2.50;;
27013;SDS011;14556;52.222;4.510;2023-03-23T07:43:15;14.70;;;2.70;;
27013;SDS011;14556;52.222;4.510;2023-03-23T07:45:41;12.03;;;2.33;;
27013;SDS011;14556;52.222;4.510;2023-03-23T07:48:06;13.90;;;2.47;;
27013;SDS011;14556;52.222;4.510;2023-03-23T07:50:31;15.83;;;2.37;;
27013;SDS011;14556;52.222;4.510;2023-03-23T07:52:57;13.70;;;2.07;;
27013;SDS011;14556;52.222;4.510;2023-03-23T07:55:23;10.70;;;2.00;;
27013;SDS011;14556;52.222;4.510;2023-03-23T07:57:50;11.50;;;2.23;;
27013;SDS011;14556;52.222;4.510;2023-03-23T08:00:16;10.07;;;2.90;;
27013;SDS011;14556;52.222;4.510;2023-03-23T08:02:48;15.17;;;2.83;;
27013;SDS011;14556;52.222;4.510;2023-03-23T08:05:14;13.37;;;2.63;;
27013;SDS011;14556;52.222;4.510;2023-03-23T08:07:40;13.00;;;2.93;;
27013;SDS011;14556;52.222;4.510;2023-03-23T08:10:07;13.63;;;2.50;;
27013;SDS011;14556;52.222;4.510;2023-03-23T08:12:36;9.53;;;2.10;;
27013;SDS011;14556;52.222;4.510;2023-03-23T08:15:01;13.27;;;2.37;;
27013;SDS011;14556;52.222;4.510;2023-03-23T08:17:27;9.03;;;2.90;;
27013;SDS011;14556;52.222;4.510;2023-03-23T08:19:52;9.30;;;2.37;;
27013;SDS011;14556;52.222;4.510;2023-03-23T08:22:17;10.07;;;2.57;;
27013;SDS011;14556;52.222;4.510;2023-03-23T08:24:43;15.07;;;2.30;;
27013;SDS011;14556;52.222;4.510;2023-03-23T08:27:08;10.83;;;2.43;;
27013;SDS011;14556;52.222;4.510;2023-03-23T08:29:34;11.60;;;1.80;;
27013;SDS011;14556;52.222;4.510;2023-03-23T08:31:59;11.23;;;2.20;;
27013;SDS011;14556;52.222;4.510;2023-03-23T08:34:27;10.47;;;2.20;;
27013;SDS011;14556;52.222;4.510;2023-03-23T08:36:52;11.87;;;1.90;;
27013;SDS011;14556;52.222;4.510;2023-03-23T08:39:18;9.43;;;2.30;;
27013;SDS011;14556;52.222;4.510;2023-03-23T08:41:43;11.37;;;1.90;;
27013;SDS011;14556;52.222;4.510;2023-03-23T08:44:09;7.83;;;2.33;;
27013;SDS011;14556;52.222;4.510;2023-03-23T08:46:34;10.40;;;1.90;;
27013;SDS011;14556;52.222;4.510;2023-03-23T08:49:00;12.47;;;2.63;;
27013;SDS011;14556;52.222;4.510;2023-03-23T08:51:25;11.70;;;2.23;;
27013;SDS011;14556;52.222;4.510;2023-03-23T08:53:51;17.20;;;2.80;;
27013;SDS011;14556;52.222;4.510;2023-03-23T08:56:17;12.87;;;3.00;;
27013;SDS011;14556;52.222;4.510;2023-03-23T08:58:43;12.37;;;2.17;;
27013;SDS011;14556;52.222;4.510;2023-03-23T09:01:08;17.83;;;3.23;;
27013;SDS011;14556;52.222;4.510;2023-03-23T09:03:34;19.27;;;3.20;;
27013;SDS011;14556;52.222;4.510;2023-03-23T09:06:04;17.77;;;3.00;;
27013;SDS011;14556;52.222;4.510;2023-03-23T09:08:30;12.27;;;2.23;;
27013;SDS011;14556;52.222;4.510;2023-03-23T09:11:00;13.00;;;2.60;;
27013;SDS011;14556;52.222;4.510;2023-03-23T09:13:25;9.53;;;2.63;;
27013;SDS011;14556;52.222;4.510;2023-03-23T09:15:50;9.20;;;2.73;;
27013;SDS011;14556;52.222;4.510;2023-03-23T09:18:17;17.47;;;2.50;;
27013;SDS011;14556;52.222;4.510;2023-03-23T09:20:43;13.50;;;2.53;;
27013;SDS011;14556;52.222;4.510;2023-03-23T09:23:08;14.50;;;2.57;;
27013;SDS011;14556;52.222;4.510;2023-03-23T09:25:34;13.77;;;2.40;;
27013;SDS011;14556;52.222;4.510;2023-03-23T09:27:59;14.17;;;2.33;;
27013;SDS011;14556;52.222;4.510;2023-03-23T09:30:29;12.30;;;2.00;;
27013;SDS011;14556;52.222;4.510;2023-03-23T09:32:56;14.03;;;2.73;;
27013;SDS011;14556;52.222;4.510;2023-03-23T09:35:21;27.47;;;2.70;;
27013;SDS011;14556;52.222;4.510;2023-03-23T09:37:47;14.27;;;4.03;;
27013;SDS011;14556;52.222;4.510;2023-03-23T09:40:14;16.03;;;2.23;;
27013;SDS011;14556;52.222;4.510;2023-03-23T09:50:23;8.33;;;1.60;;
27013;SDS011;14556;52.222;4.510;2023-03-23T09:53:11;13.90;;;2.83;;
27013;SDS011;14556;52.222;4.510;2023-03-23T09:55:38;12.23;;;2.93;;
27013;SDS011;14556;52.222;4.510;2023-03-23T09:58:11;14.17;;;2.40;;
27013;SDS011;14556;52.222;4.510;2023-03-23T10:00:40;16.90;;;2.47;;
27013;SDS011;14556;52.222;4.510;2023-03-23T10:05:37;13.47;;;2.10;;
27013;SDS011;14556;52.222;4.510;2023-03-23T10:10:46;10.53;;;2.23;;
27013;SDS011;14556;52.222;4.510;2023-03-23T10:13:40;16.70;;;2.33;;
27013;SDS011;14556;52.222;4.510;2023-03-23T10:21:31;20.03;;;3.37;;
27013;SDS011;14556;52.222;4.510;2023-03-23T10:24:00;19.33;;;3.27;;
27013;SDS011;14556;52.222;4.510;2023-03-23T10:31:33;19.03;;;3.33;;
27013;SDS011;14556;52.222;4.510;2023-03-23T10:34:02;14.97;;;2.93;;
27013;SDS011;14556;52.222;4.510;2023-03-23T10:36:29;14.60;;;2.67;;
27013;SDS011;14556;52.222;4.510;2023-03-23T10:39:11;11.60;;;2.33;;
27013;SDS011;14556;52.222;4.510;2023-03-23T10:41:37;14.37;;;2.50;;
27013;SDS011;14556;52.222;4.510;2023-03-23T10:44:13;10.60;;;2.47;;
27013;SDS011;14556;52.222;4.510;2023-03-23T10:49:06;16.40;;;2.30;;
27013;SDS011;14556;52.222;4.510;2023-03-23T10:51:37;12.17;;;2.77;;
27013;SDS011;14556;52.222;4.510;2023-03-23T10:54:03;13.50;;;2.30;;
27013;SDS011;14556;52.222;4.510;2023-03-23T10:59:11;15.63;;;2.70;;
27013;SDS011;14556;52.222;4.510;2023-03-23T11:01:37;12.33;;;2.30;;
27013;SDS011;14556;52.222;4.510;2023-03-23T11:04:03;14.83;;;2.50;;
27013;SDS011;14556;52.222;4.510;2023-03-23T11:06:29;18.50;;;2.87;;
27013;SDS011;14556;52.222;4.510;2023-03-23T11:08:56;9.93;;;2.30;;
27013;SDS011;14556;52.222;4.510;2023-03-23T11:11:36;13.57;;;2.30;;
27013;SDS011;14556;52.222;4.510;2023-03-23T11:14:12;11.70;;;2.67;;
27013;SDS011;14556;52.222;4.510;2023-03-23T11:16:42;14.67;;;2.47;;
27013;SDS011;14556;52.222;4.510;2023-03-23T11:19:20;14.40;;;2.70;;
27013;SDS011;14556;52.222;4.510;2023-03-23T11:21:47;16.40;;;2.93;;
27013;SDS011;14556;52.222;4.510;2023-03-23T11:24:13;21.10;;;2.67;;
27013;SDS011;14556;52.222;4.510;2023-03-23T11:26:38;18.33;;;2.77;;
27013;SDS011;14556;52.222;4.510;2023-03-23T11:31:39;6.43;;;2.30;;
27013;SDS011;14556;52.222;4.510;2023-03-23T11:37:00;13.33;;;2.43;;
27013;SDS011;14556;52.222;4.510;2023-03-23T11:39:33;14.53;;;2.73;;
27013;SDS011;14556;52.222;4.510;2023-03-23T11:42:00;14.90;;;2.70;;
27013;SDS011;14556;52.222;4.510;2023-03-23T11:44:33;15.03;;;2.63;;
27013;SDS011;14556;52.222;4.510;2023-03-23T11:49:34;7.83;;;2.53;;
27013;SDS011;14556;52.222;4.510;2023-03-23T11:52:10;11.13;;;2.23;;
27013;SDS011;14556;52.222;4.510;2023-03-23T11:54:38;14.93;;;2.73;;
27013;SDS011;14556;52.222;4.510;2023-03-23T11:57:07;11.80;;;2.10;;
27013;SDS011;14556;52.222;4.510;2023-03-23T11:59:34;15.40;;;2.20;;
27013;SDS011;14556;52.222;4.510;2023-03-23T12:07:23;10.83;;;2.23;;
27013;SDS011;14556;52.222;4.510;2023-03-23T12:10:10;10.27;;;1.80;;
27013;SDS011;14556;52.222;4.510;2023-03-23T12:12:44;8.10;;;2.40;;
27013;SDS011;14556;52.222;4.510;2023-03-23T12:15:22;7.40;;;1.43;;
27013;SDS011;14556;52.222;4.510;2023-03-23T12:26:17;7.53;;;2.43;;
27013;SDS011;14556;52.222;4.510;2023-03-23T12:28:50;8.07;;;2.37;;
27013;SDS011;14556;52.222;4.510;2023-03-23T12:34:04;12.53;;;2.43;;
27013;SDS011;14556;52.222;4.510;2023-03-23T12:39:01;11.80;;;1.73;;
27013;SDS011;14556;52.222;4.510;2023-03-23T12:41:38;10.97;;;2.03;;
27013;SDS011;14556;52.222;4.510;2023-03-23T12:44:07;8.63;;;2.43;;
27013;SDS011;14556;52.222;4.510;2023-03-23T12:46:48;10.80;;;2.07;;
27013;SDS011;14556;52.222;4.510;2023-03-23T12:49:21;8.43;;;1.97;;
27013;SDS011;14556;52.222;4.510;2023-03-23T13:02:20;7.83;;;1.90;;
27013;SDS011;14556;52.222;4.510;2023-03-23T13:04:51;7.17;;;2.70;;
27013;SDS011;14556;52.222;4.510;2023-03-23T13:07:23;10.23;;;2.17;;
27013;SDS011;14556;52.222;4.510;2023-03-23T13:10:04;10.37;;;1.83;;
27013;SDS011;14556;52.222;4.510;2023-03-23T13:12:30;6.43;;;1.50;;
27013;SDS011;14556;52.222;4.510;2023-03-23T13:27:59;13.97;;;2.63;;
27013;SDS011;14556;52.222;4.510;2023-03-23T13:30:26;7.20;;;2.27;;
27013;SDS011;14556;52.222;4.510;2023-03-23T13:33:01;14.10;;;2.43;;
27013;SDS011;14556;52.222;4.510;2023-03-23T13:35:28;11.40;;;2.70;;
27013;SDS011;14556;52.222;4.510;2023-03-23T13:37:57;16.87;;;2.33;;
27013;SDS011;14556;52.222;4.510;2023-03-23T13:40:26;10.40;;;2.30;;
27013;SDS011;14556;52.222;4.510;2023-03-23T13:42:57;9.80;;;1.90;;
27013;SDS011;14556;52.222;4.510;2023-03-23T13:45:24;11.17;;;1.90;;
27013;SDS011;14556;52.222;4.510;2023-03-23T13:50:29;18.60;;;2.50;;
27013;SDS011;14556;52.222;4.510;2023-03-23T13:53:00;12.17;;;2.57;;
27013;SDS011;14556;52.222;4.510;2023-03-23T14:05:29;10.60;;;2.27;;
27013;SDS011;14556;52.222;4.510;2023-03-23T14:07:59;15.63;;;2.37;;
27013;SDS011;14556;52.222;4.510;2023-03-23T14:11:11;12.43;;;2.20;;
27013;SDS011;14556;52.222;4.510;2023-03-23T14:13:21;16.87;;;2.50;;
27013;SDS011;14556;52.222;4.510;2023-03-23T14:15:58;14.20;;;2.73;;
27013;SDS011;14556;52.222;4.510;2023-03-23T14:18:26;11.30;;;2.00;;
27013;SDS011;14556;52.222;4.510;2023-03-23T14:20:52;16.13;;;2.40;;
27013;SDS011;14556;52.222;4.510;2023-03-23T14:23:20;15.03;;;2.73;;
27013;SDS011;14556;52.222;4.510;2023-03-23T14:28:44;9.67;;;2.30;;
27013;SDS011;14556;52.222;4.510;2023-03-23T14:33:41;8.93;;;1.97;;
27013;SDS011;14556;52.222;4.510;2023-03-23T14:36:07;11.30;;;2.73;;
27013;SDS011;14556;52.222;4.510;2023-03-23T14:38:33;12.93;;;1.70;;
27013;SDS011;14556;52.222;4.510;2023-03-23T14:41:02;17.53;;;2.60;;
27013;SDS011;14556;52.222;4.510;2023-03-23T14:43:28;10.97;;;2.37;;
27013;SDS011;14556;52.222;4.510;2023-03-23T14:45:54;9.83;;;2.20;;
27013;SDS011;14556;52.222;4.510;2023-03-23T14:48:20;12.53;;;2.47;;
27013;SDS011;14556;52.222;4.510;2023-03-23T14:50:56;12.07;;;2.63;;
27013;SDS011;14556;52.222;4.510;2023-03-23T14:53:23;14.63;;;2.53;;
27013;SDS011;14556;52.222;4.510;2023-03-23T14:55:49;12.73;;;2.93;;
27013;SDS011;14556;52.222;4.510;2023-03-23T14:58:16;17.00;;;2.50;;
27013;SDS011;14556;52.222;4.510;2023-03-23T15:00:47;13.33;;;2.63;;
27013;SDS011;14556;52.222;4.510;2023-03-23T15:03:14;12.90;;;3.30;;
27013;SDS011;14556;52.222;4.510;2023-03-23T15:06:00;16.17;;;2.83;;
27013;SDS011;14556;52.222;4.510;2023-03-23T15:08:29;19.90;;;4.27;;
27013;SDS011;14556;52.222;4.510;2023-03-23T15:13:30;15.77;;;2.60;;
27013;SDS011;14556;52.222;4.510;2023-03-23T15:16:06;15.63;;;3.00;;
27013;SDS011;14556;52.222;4.510;2023-03-23T15:18:36;13.77;;;2.93;;
27013;SDS011;14556;52.222;4.510;2023-03-23T15:21:10;12.37;;;2.73;;
27013;SDS011;14556;52.222;4.510;2023-03-23T15:23:41;17.63;;;2.83;;
27013;SDS011;14556;52.222;4.510;2023-03-23T15:26:06;11.43;;;2.30;;
27013;SDS011;14556;52.222;4.510;2023-03-23T15:28:39;15.80;;;2.40;;
27013;SDS011;14556;52.222;4.510;2023-03-23T15:31:05;11.67;;;2.77;;
27013;SDS011;14556;52.222;4.510;2023-03-23T15:33:35;12.57;;;2.47;;
27013;SDS011;14556;52.222;4.510;2023-03-23T15:36:04;13.87;;;2.63;;
27013;SDS011;14556;52.222;4.510;2023-03-23T15:38:31;13.60;;;2.50;;
27013;SDS011;14556;52.222;4.510;2023-03-23T15:40:58;17.00;;;2.30;;
27013;SDS011;14556;52.222;4.510;2023-03-23T15:43:30;15.00;;;2.63;;
27013;SDS011;14556;52.222;4.510;2023-03-23T15:48:28;11.43;;;2.53;;
27013;SDS011;14556;52.222;4.510;2023-03-23T15:50:54;13.47;;;2.33;;
27013;SDS011;14556;52.222;4.510;2023-03-23T15:55:48;10.43;;;2.17;;
27013;SDS011;14556;52.222;4.510;2023-03-23T15:58:13;12.73;;;2.63;;
27013;SDS011;14556;52.222;4.510;2023-03-23T16:00:41;7.37;;;1.63;;
27013;SDS011;14556;52.222;4.510;2023-03-23T16:03:10;9.97;;;2.70;;
27013;SDS011;14556;52.222;4.510;2023-03-23T16:05:37;13.30;;;2.87;;
27013;SDS011;14556;52.222;4.510;2023-03-23T16:08:03;18.37;;;2.27;;
27013;SDS011;14556;52.222;4.510;2023-03-23T16:10:30;9.20;;;2.70;;
27013;SDS011;14556;52.222;4.510;2023-03-23T16:12:56;17.07;;;2.80;;
27013;SDS011;14556;52.222;4.510;2023-03-23T16:15:22;19.07;;;3.23;;
27013;SDS011;14556;52.222;4.510;2023-03-23T16:17:49;17.30;;;2.70;;
27013;SDS011;14556;52.222;4.510;2023-03-23T16:20:16;5.40;;;1.23;;
27013;SDS011;14556;52.222;4.510;2023-03-23T16:22:44;17.10;;;3.27;;
27013;SDS011;14556;52.222;4.510;2023-03-23T16:25:11;12.57;;;2.40;;
27013;SDS011;14556;52.222;4.510;2023-03-23T16:27:38;9.00;;;1.70;;
27013;SDS011;14556;52.222;4.510;2023-03-23T16:30:15;15.13;;;2.97;;
27013;SDS011;14556;52.222;4.510;2023-03-23T16:32:42;13.93;;;2.87;;
27013;SDS011;14556;52.222;4.510;2023-03-23T16:35:09;11.70;;;2.60;;
27013;SDS011;14556;52.222;4.510;2023-03-23T16:37:35;14.27;;;2.77;;
27013;SDS011;14556;52.222;4.510;2023-03-23T16:40:02;10.83;;;2.30;;
27013;SDS011;14556;52.222;4.510;2023-03-23T16:42:29;10.83;;;2.50;;
27013;SDS011;14556;52.222;4.510;2023-03-23T16:44:55;14.17;;;2.70;;
27013;SDS011;14556;52.222;4.510;2023-03-23T16:47:21;13.23;;;2.47;;
27013;SDS011;14556;52.222;4.510;2023-03-23T16:49:51;16.90;;;2.97;;